KSUU

Travis AFB Airport

Fairfield, California, USA
METAR KSUU 180158Z AUTO 23014KT 10SM CLR 29/10 A2993 RMK AO2 SLP142 T02890101 $
Observed Flight Rules
Aug-18 @ 01:58 UTC (30 minutes ago) Visual Flight Rules
Wind Visibility Clouds
230° at 14 knots 10 miles
  • Clear skies
Temperatures Readings
Current 29°C / 84°F
Dewpoint 10°C / 50°F
Humidity 31%
Altimeter 29.93" Hg
Pressure 1014.2 hPa
Elevation 19
METAR KSUU 180158Z AUTO 23014KT 10SM CLR 29/10 A2993 RMK AO2 SLP142 T02890101 $
Observed Flight Rules
Aug-18 @ 01:58 UTC
(30 minutes ago)
VFR
Wind Visibility
230° at 14 knots 10 miles
Clouds
  • Clear skies
Temperature Dewpoint
29°C / 84°F 10°C / 50°F
Humidity Altimeter Pressure
31% 29.93" Hg 1014.2 hPa